sensor_id;sensor_type;location;lat;lon;timestamp;P1;durP1;ratioP1;P2;durP2;ratioP2
2546;SDS011;1283;47.982;7.834;2023-06-22T00:00:31;17.50;;;4.82;;
2546;SDS011;1283;47.982;7.834;2023-06-22T00:02:59;8.85;;;4.85;;
2546;SDS011;1283;47.982;7.834;2023-06-22T00:05:25;14.52;;;4.93;;
2546;SDS011;1283;47.982;7.834;2023-06-22T00:07:52;15.25;;;5.00;;
2546;SDS011;1283;47.982;7.834;2023-06-22T00:10:18;11.25;;;4.53;;
2546;SDS011;1283;47.982;7.834;2023-06-22T00:12:45;17.45;;;4.43;;
2546;SDS011;1283;47.982;7.834;2023-06-22T00:15:11;14.38;;;4.97;;
2546;SDS011;1283;47.982;7.834;2023-06-22T00:17:38;10.60;;;4.55;;
2546;SDS011;1283;47.982;7.834;2023-06-22T00:20:06;14.40;;;5.38;;
2546;SDS011;1283;47.982;7.834;2023-06-22T00:22:35;13.77;;;5.32;;
2546;SDS011;1283;47.982;7.834;2023-06-22T00:25:04;17.90;;;4.68;;
2546;SDS011;1283;47.982;7.834;2023-06-22T00:27:31;13.50;;;5.78;;
2546;SDS011;1283;47.982;7.834;2023-06-22T00:29:58;13.75;;;5.03;;
2546;SDS011;1283;47.982;7.834;2023-06-22T00:32:24;24.85;;;5.10;;
2546;SDS011;1283;47.982;7.834;2023-06-22T00:34:50;14.10;;;4.93;;
2546;SDS011;1283;47.982;7.834;2023-06-22T00:37:18;8.25;;;4.43;;
2546;SDS011;1283;47.982;7.834;2023-06-22T00:39:47;11.85;;;4.95;;
2546;SDS011;1283;47.982;7.834;2023-06-22T00:42:14;9.82;;;4.82;;
2546;SDS011;1283;47.982;7.834;2023-06-22T00:44:40;9.27;;;4.13;;
2546;SDS011;1283;47.982;7.834;2023-06-22T00:47:07;12.75;;;4.93;;
2546;SDS011;1283;47.982;7.834;2023-06-22T00:49:33;14.05;;;6.32;;
2546;SDS011;1283;47.982;7.834;2023-06-22T00:52:00;20.13;;;5.65;;
2546;SDS011;1283;47.982;7.834;2023-06-22T00:54:28;20.67;;;5.30;;
2546;SDS011;1283;47.982;7.834;2023-06-22T00:56:54;16.15;;;6.03;;
2546;SDS011;1283;47.982;7.834;2023-06-22T00:59:22;12.65;;;5.90;;
2546;SDS011;1283;47.982;7.834;2023-06-22T01:01:51;15.02;;;6.05;;
2546;SDS011;1283;47.982;7.834;2023-06-22T01:04:17;14.05;;;6.68;;
2546;SDS011;1283;47.982;7.834;2023-06-22T01:06:45;17.67;;;6.25;;
2546;SDS011;1283;47.982;7.834;2023-06-22T01:09:19;17.63;;;6.43;;
2546;SDS011;1283;47.982;7.834;2023-06-22T01:11:52;18.30;;;5.72;;
2546;SDS011;1283;47.982;7.834;2023-06-22T01:14:22;17.67;;;6.57;;
2546;SDS011;1283;47.982;7.834;2023-06-22T01:16:50;13.68;;;5.93;;
2546;SDS011;1283;47.982;7.834;2023-06-22T01:19:27;16.20;;;6.40;;
2546;SDS011;1283;47.982;7.834;2023-06-22T01:22:00;18.67;;;5.93;;
2546;SDS011;1283;47.982;7.834;2023-06-22T01:24:28;13.90;;;5.95;;
2546;SDS011;1283;47.982;7.834;2023-06-22T01:26:59;12.23;;;5.28;;
2546;SDS011;1283;47.982;7.834;2023-06-22T01:29:30;13.27;;;6.80;;
2546;SDS011;1283;47.982;7.834;2023-06-22T01:31:57;15.82;;;5.28;;
2546;SDS011;1283;47.982;7.834;2023-06-22T01:34:23;25.95;;;6.25;;
2546;SDS011;1283;47.982;7.834;2023-06-22T01:36:50;9.68;;;5.22;;
2546;SDS011;1283;47.982;7.834;2023-06-22T01:39:17;18.83;;;5.75;;
2546;SDS011;1283;47.982;7.834;2023-06-22T01:41:44;22.25;;;5.57;;
2546;SDS011;1283;47.982;7.834;2023-06-22T01:44:10;14.07;;;6.32;;
2546;SDS011;1283;47.982;7.834;2023-06-22T01:46:38;14.27;;;6.40;;
2546;SDS011;1283;47.982;7.834;2023-06-22T01:49:05;15.43;;;6.65;;
2546;SDS011;1283;47.982;7.834;2023-06-22T01:51:32;22.35;;;6.13;;
2546;SDS011;1283;47.982;7.834;2023-06-22T01:53:59;15.00;;;5.97;;
2546;SDS011;1283;47.982;7.834;2023-06-22T01:56:27;20.25;;;6.38;;
2546;SDS011;1283;47.982;7.834;2023-06-22T01:58:55;22.27;;;6.03;;
2546;SDS011;1283;47.982;7.834;2023-06-22T02:01:31;19.47;;;6.03;;
2546;SDS011;1283;47.982;7.834;2023-06-22T02:04:04;20.42;;;6.03;;
2546;SDS011;1283;47.982;7.834;2023-06-22T02:06:33;13.80;;;6.55;;
2546;SDS011;1283;47.982;7.834;2023-06-22T02:09:04;14.38;;;6.97;;
2546;SDS011;1283;47.982;7.834;2023-06-22T02:11:33;14.80;;;6.13;;
2546;SDS011;1283;47.982;7.834;2023-06-22T02:14:01;18.60;;;6.20;;
2546;SDS011;1283;47.982;7.834;2023-06-22T02:16:27;19.60;;;6.03;;
2546;SDS011;1283;47.982;7.834;2023-06-22T02:18:55;17.27;;;5.65;;
2546;SDS011;1283;47.982;7.834;2023-06-22T02:21:23;16.27;;;5.90;;
2546;SDS011;1283;47.982;7.834;2023-06-22T02:23:49;13.25;;;6.00;;
2546;SDS011;1283;47.982;7.834;2023-06-22T02:26:16;16.35;;;6.97;;
2546;SDS011;1283;47.982;7.834;2023-06-22T02:28:43;18.90;;;6.47;;
2546;SDS011;1283;47.982;7.834;2023-06-22T02:31:11;16.90;;;6.57;;
2546;SDS011;1283;47.982;7.834;2023-06-22T02:33:37;14.07;;;6.53;;
2546;SDS011;1283;47.982;7.834;2023-06-22T02:36:04;15.82;;;6.57;;
2546;SDS011;1283;47.982;7.834;2023-06-22T02:38:35;12.77;;;5.72;;
2546;SDS011;1283;47.982;7.834;2023-06-22T02:41:02;21.80;;;6.10;;
2546;SDS011;1283;47.982;7.834;2023-06-22T02:43:28;13.38;;;5.70;;
2546;SDS011;1283;47.982;7.834;2023-06-22T02:45:55;12.57;;;6.05;;
2546;SDS011;1283;47.982;7.834;2023-06-22T02:48:21;16.48;;;6.03;;
2546;SDS011;1283;47.982;7.834;2023-06-22T02:50:48;12.30;;;5.13;;
2546;SDS011;1283;47.982;7.834;2023-06-22T02:53:14;13.43;;;5.00;;
2546;SDS011;1283;47.982;7.834;2023-06-22T02:55:42;8.50;;;5.20;;
2546;SDS011;1283;47.982;7.834;2023-06-22T02:58:08;19.90;;;6.35;;
2546;SDS011;1283;47.982;7.834;2023-06-22T03:00:35;11.95;;;5.85;;
2546;SDS011;1283;47.982;7.834;2023-06-22T03:03:01;10.05;;;5.38;;
2546;SDS011;1283;47.982;7.834;2023-06-22T03:05:28;11.63;;;5.47;;
2546;SDS011;1283;47.982;7.834;2023-06-22T03:07:54;14.15;;;5.18;;
2546;SDS011;1283;47.982;7.834;2023-06-22T03:10:21;13.27;;;5.50;;
2546;SDS011;1283;47.982;7.834;2023-06-22T03:12:48;16.90;;;5.50;;
2546;SDS011;1283;47.982;7.834;2023-06-22T03:15:16;11.77;;;5.10;;
2546;SDS011;1283;47.982;7.834;2023-06-22T03:17:43;10.93;;;5.63;;
2546;SDS011;1283;47.982;7.834;2023-06-22T03:20:10;12.50;;;5.88;;
2546;SDS011;1283;47.982;7.834;2023-06-22T03:22:37;13.80;;;5.57;;
2546;SDS011;1283;47.982;7.834;2023-06-22T03:25:04;13.18;;;6.32;;
2546;SDS011;1283;47.982;7.834;2023-06-22T03:27:35;12.13;;;5.95;;
2546;SDS011;1283;47.982;7.834;2023-06-22T03:30:03;26.27;;;6.90;;
2546;SDS011;1283;47.982;7.834;2023-06-22T03:32:31;12.45;;;6.00;;
2546;SDS011;1283;47.982;7.834;2023-06-22T03:34:57;14.02;;;5.85;;
2546;SDS011;1283;47.982;7.834;2023-06-22T03:37:24;17.60;;;6.05;;
2546;SDS011;1283;47.982;7.834;2023-06-22T03:39:50;11.88;;;5.82;;
2546;SDS011;1283;47.982;7.834;2023-06-22T03:42:17;16.38;;;5.80;;
2546;SDS011;1283;47.982;7.834;2023-06-22T03:44:43;19.80;;;6.25;;
2546;SDS011;1283;47.982;7.834;2023-06-22T03:47:11;11.55;;;5.70;;
2546;SDS011;1283;47.982;7.834;2023-06-22T03:49:38;10.57;;;5.15;;
2546;SDS011;1283;47.982;7.834;2023-06-22T03:52:04;13.52;;;6.72;;
2546;SDS011;1283;47.982;7.834;2023-06-22T03:54:31;13.30;;;4.97;;
2546;SDS011;1283;47.982;7.834;2023-06-22T03:56:58;18.13;;;5.70;;
2546;SDS011;1283;47.982;7.834;2023-06-22T03:59:24;12.25;;;6.20;;
2546;SDS011;1283;47.982;7.834;2023-06-22T04:01:51;15.48;;;5.70;;
2546;SDS011;1283;47.982;7.834;2023-06-22T04:04:19;13.20;;;5.35;;
2546;SDS011;1283;47.982;7.834;2023-06-22T04:06:45;10.68;;;5.63;;
2546;SDS011;1283;47.982;7.834;2023-06-22T04:09:11;12.38;;;5.25;;
2546;SDS011;1283;47.982;7.834;2023-06-22T04:11:38;11.65;;;5.32;;
2546;SDS011;1283;47.982;7.834;2023-06-22T04:14:04;16.27;;;5.47;;
2546;SDS011;1283;47.982;7.834;2023-06-22T04:16:31;23.02;;;5.57;;
2546;SDS011;1283;47.982;7.834;2023-06-22T04:18:57;15.60;;;5.47;;
2546;SDS011;1283;47.982;7.834;2023-06-22T04:21:25;15.90;;;5.78;;
2546;SDS011;1283;47.982;7.834;2023-06-22T04:23:51;10.35;;;4.85;;
2546;SDS011;1283;47.982;7.834;2023-06-22T04:26:18;25.83;;;5.75;;
2546;SDS011;1283;47.982;7.834;2023-06-22T04:28:45;15.93;;;5.70;;
2546;SDS011;1283;47.982;7.834;2023-06-22T04:31:16;17.33;;;5.30;;
2546;SDS011;1283;47.982;7.834;2023-06-22T04:33:43;20.95;;;5.32;;
2546;SDS011;1283;47.982;7.834;2023-06-22T04:36:09;12.27;;;5.10;;
2546;SDS011;1283;47.982;7.834;2023-06-22T04:38:39;11.13;;;5.05;;
2546;SDS011;1283;47.982;7.834;2023-06-22T04:41:06;21.02;;;5.60;;
2546;SDS011;1283;47.982;7.834;2023-06-22T04:43:34;19.05;;;5.95;;
2546;SDS011;1283;47.982;7.834;2023-06-22T04:46:00;18.05;;;6.15;;
2546;SDS011;1283;47.982;7.834;2023-06-22T04:48:28;20.50;;;6.88;;
2546;SDS011;1283;47.982;7.834;2023-06-22T04:50:57;14.13;;;5.43;;
2546;SDS011;1283;47.982;7.834;2023-06-22T04:53:28;12.20;;;5.55;;
2546;SDS011;1283;47.982;7.834;2023-06-22T04:55:56;21.63;;;5.32;;
2546;SDS011;1283;47.982;7.834;2023-06-22T04:58:23;15.65;;;4.88;;
2546;SDS011;1283;47.982;7.834;2023-06-22T05:00:52;13.32;;;5.70;;
2546;SDS011;1283;47.982;7.834;2023-06-22T05:03:18;15.55;;;5.38;;
2546;SDS011;1283;47.982;7.834;2023-06-22T05:05:45;12.77;;;4.90;;
2546;SDS011;1283;47.982;7.834;2023-06-22T05:08:11;10.43;;;4.60;;
2546;SDS011;1283;47.982;7.834;2023-06-22T05:10:39;14.20;;;4.93;;
2546;SDS011;1283;47.982;7.834;2023-06-22T05:13:06;19.65;;;4.78;;
2546;SDS011;1283;47.982;7.834;2023-06-22T05:15:33;16.83;;;4.88;;
2546;SDS011;1283;47.982;7.834;2023-06-22T05:18:04;12.30;;;5.32;;
2546;SDS011;1283;47.982;7.834;2023-06-22T05:20:31;16.60;;;6.65;;
2546;SDS011;1283;47.982;7.834;2023-06-22T05:22:59;13.90;;;5.28;;
2546;SDS011;1283;47.982;7.834;2023-06-22T05:25:25;21.08;;;6.47;;
2546;SDS011;1283;47.982;7.834;2023-06-22T05:27:54;20.40;;;6.30;;
2546;SDS011;1283;47.982;7.834;2023-06-22T05:30:22;13.05;;;5.70;;
2546;SDS011;1283;47.982;7.834;2023-06-22T05:32:49;11.27;;;5.47;;
2546;SDS011;1283;47.982;7.834;2023-06-22T05:35:17;11.52;;;5.25;;
2546;SDS011;1283;47.982;7.834;2023-06-22T05:37:44;25.33;;;6.55;;
2546;SDS011;1283;47.982;7.834;2023-06-22T05:40:11;10.70;;;6.10;;
2546;SDS011;1283;47.982;7.834;2023-06-22T05:42:38;17.98;;;7.10;;
2546;SDS011;1283;47.982;7.834;2023-06-22T05:45:05;15.95;;;7.38;;
2546;SDS011;1283;47.982;7.834;2023-06-22T05:47:33;17.20;;;6.88;;
2546;SDS011;1283;47.982;7.834;2023-06-22T05:50:00;15.10;;;5.85;;
2546;SDS011;1283;47.982;7.834;2023-06-22T05:52:31;14.30;;;6.80;;
2546;SDS011;1283;47.982;7.834;2023-06-22T05:54:57;18.42;;;6.35;;
2546;SDS011;1283;47.982;7.834;2023-06-22T05:57:24;12.20;;;5.82;;
2546;SDS011;1283;47.982;7.834;2023-06-22T05:59:50;11.82;;;6.22;;
2546;SDS011;1283;47.982;7.834;2023-06-22T06:02:18;15.45;;;6.15;;
2546;SDS011;1283;47.982;7.834;2023-06-22T06:04:46;13.48;;;6.07;;
2546;SDS011;1283;47.982;7.834;2023-06-22T06:07:13;14.88;;;5.78;;
2546;SDS011;1283;47.982;7.834;2023-06-22T06:09:39;16.85;;;6.22;;
2546;SDS011;1283;47.982;7.834;2023-06-22T06:12:06;18.27;;;7.05;;
2546;SDS011;1283;47.982;7.834;2023-06-22T06:14:33;23.15;;;6.60;;
2546;SDS011;1283;47.982;7.834;2023-06-22T06:16:59;15.30;;;6.53;;
2546;SDS011;1283;47.982;7.834;2023-06-22T06:19:26;14.23;;;6.70;;
2546;SDS011;1283;47.982;7.834;2023-06-22T06:21:54;16.05;;;6.65;;
2546;SDS011;1283;47.982;7.834;2023-06-22T06:24:20;17.70;;;7.85;;
2546;SDS011;1283;47.982;7.834;2023-06-22T06:26:46;18.42;;;7.40;;
2546;SDS011;1283;47.982;7.834;2023-06-22T06:29:13;23.10;;;7.40;;
2546;SDS011;1283;47.982;7.834;2023-06-22T06:31:41;22.02;;;8.23;;
2546;SDS011;1283;47.982;7.834;2023-06-22T06:34:07;22.90;;;8.48;;
2546;SDS011;1283;47.982;7.834;2023-06-22T06:36:34;15.60;;;8.95;;
2546;SDS011;1283;47.982;7.834;2023-06-22T06:39:02;20.45;;;9.20;;
2546;SDS011;1283;47.982;7.834;2023-06-22T06:41:29;15.93;;;9.88;;
2546;SDS011;1283;47.982;7.834;2023-06-22T06:43:55;19.45;;;8.02;;
2546;SDS011;1283;47.982;7.834;2023-06-22T06:46:22;16.80;;;9.18;;
2546;SDS011;1283;47.982;7.834;2023-06-22T06:48:48;20.55;;;7.90;;
2546;SDS011;1283;47.982;7.834;2023-06-22T06:51:15;15.50;;;7.22;;
2546;SDS011;1283;47.982;7.834;2023-06-22T06:53:41;18.90;;;9.18;;
2546;SDS011;1283;47.982;7.834;2023-06-22T06:56:09;17.55;;;8.88;;
2546;SDS011;1283;47.982;7.834;2023-06-22T06:58:35;16.83;;;8.02;;
2546;SDS011;1283;47.982;7.834;2023-06-22T07:01:02;15.30;;;8.30;;
2546;SDS011;1283;47.982;7.834;2023-06-22T07:03:28;19.08;;;10.43;;
2546;SDS011;1283;47.982;7.834;2023-06-22T07:05:55;21.27;;;9.70;;
2546;SDS011;1283;47.982;7.834;2023-06-22T07:08:21;22.23;;;8.93;;
2546;SDS011;1283;47.982;7.834;2023-06-22T07:10:48;19.90;;;8.45;;
2546;SDS011;1283;47.982;7.834;2023-06-22T07:13:15;22.88;;;9.00;;
2546;SDS011;1283;47.982;7.834;2023-06-22T07:15:42;21.42;;;8.10;;
2546;SDS011;1283;47.982;7.834;2023-06-22T07:18:08;18.85;;;8.40;;
2546;SDS011;1283;47.982;7.834;2023-06-22T07:20:35;22.67;;;7.93;;
2546;SDS011;1283;47.982;7.834;2023-06-22T07:23:01;22.73;;;7.40;;
2546;SDS011;1283;47.982;7.834;2023-06-22T07:25:28;15.55;;;7.40;;
2546;SDS011;1283;47.982;7.834;2023-06-22T07:27:58;15.35;;;6.90;;
2546;SDS011;1283;47.982;7.834;2023-06-22T07:30:27;12.93;;;6.93;;
2546;SDS011;1283;47.982;7.834;2023-06-22T07:32:54;19.15;;;7.78;;
2546;SDS011;1283;47.982;7.834;2023-06-22T07:35:20;19.75;;;7.82;;
2546;SDS011;1283;47.982;7.834;2023-06-22T07:37:47;14.90;;;7.68;;
2546;SDS011;1283;47.982;7.834;2023-06-22T07:40:13;19.77;;;8.38;;
2546;SDS011;1283;47.982;7.834;2023-06-22T07:42:40;16.52;;;7.28;;
2546;SDS011;1283;47.982;7.834;2023-06-22T07:45:07;21.50;;;7.78;;
2546;SDS011;1283;47.982;7.834;2023-06-22T07:47:35;17.50;;;7.60;;
2546;SDS011;1283;47.982;7.834;2023-06-22T07:50:02;13.55;;;6.90;;
2546;SDS011;1283;47.982;7.834;2023-06-22T07:52:29;15.27;;;7.35;;
2546;SDS011;1283;47.982;7.834;2023-06-22T07:54:55;28.88;;;8.48;;
2546;SDS011;1283;47.982;7.834;2023-06-22T07:57:21;14.65;;;7.38;;
2546;SDS011;1283;47.982;7.834;2023-06-22T07:59:48;14.38;;;6.18;;
2546;SDS011;1283;47.982;7.834;2023-06-22T08:02:14;16.27;;;5.93;;
2546;SDS011;1283;47.982;7.834;2023-06-22T08:04:42;16.60;;;6.30;;
2546;SDS011;1283;47.982;7.834;2023-06-22T08:07:09;16.77;;;6.78;;
2546;SDS011;1283;47.982;7.834;2023-06-22T08:09:36;16.40;;;8.02;;
2546;SDS011;1283;47.982;7.834;2023-06-22T08:12:03;18.10;;;8.32;;
2546;SDS011;1283;47.982;7.834;2023-06-22T08:14:30;18.92;;;7.88;;
2546;SDS011;1283;47.982;7.834;2023-06-22T08:16:56;17.00;;;7.82;;
2546;SDS011;1283;47.982;7.834;2023-06-22T08:19:23;16.48;;;7.68;;
2546;SDS011;1283;47.982;7.834;2023-06-22T08:21:50;15.57;;;6.60;;
2546;SDS011;1283;47.982;7.834;2023-06-22T08:24:17;27.00;;;8.57;;
2546;SDS011;1283;47.982;7.834;2023-06-22T08:26:43;16.83;;;6.30;;
2546;SDS011;1283;47.982;7.834;2023-06-22T08:29:10;19.38;;;6.47;;
2546;SDS011;1283;47.982;7.834;2023-06-22T08:31:36;12.02;;;5.60;;
2546;SDS011;1283;47.982;7.834;2023-06-22T08:34:02;11.32;;;5.63;;
2546;SDS011;1283;47.982;7.834;2023-06-22T08:36:29;12.90;;;5.68;;
2546;SDS011;1283;47.982;7.834;2023-06-22T08:38:58;14.35;;;5.60;;
2546;SDS011;1283;47.982;7.834;2023-06-22T08:41:27;20.00;;;5.70;;
2546;SDS011;1283;47.982;7.834;2023-06-22T08:43:54;11.32;;;5.25;;
2546;SDS011;1283;47.982;7.834;2023-06-22T08:46:20;20.92;;;6.10;;
2546;SDS011;1283;47.982;7.834;2023-06-22T08:48:48;26.13;;;8.15;;
2546;SDS011;1283;47.982;7.834;2023-06-22T08:51:15;14.40;;;5.20;;
2546;SDS011;1283;47.982;7.834;2023-06-22T08:53:42;17.83;;;7.18;;
2546;SDS011;1283;47.982;7.834;2023-06-22T08:56:11;17.23;;;5.90;;
2546;SDS011;1283;47.982;7.834;2023-06-22T08:58:37;14.55;;;5.97;;
2546;SDS011;1283;47.982;7.834;2023-06-22T09:01:04;12.18;;;6.53;;
2546;SDS011;1283;47.982;7.834;2023-06-22T09:03:30;12.77;;;5.88;;
2546;SDS011;1283;47.982;7.834;2023-06-22T09:05:57;22.08;;;6.45;;
2546;SDS011;1283;47.982;7.834;2023-06-22T09:08:24;14.65;;;5.15;;
2546;SDS011;1283;47.982;7.834;2023-06-22T09:10:50;12.10;;;5.97;;
2546;SDS011;1283;47.982;7.834;2023-06-22T09:13:18;14.15;;;5.57;;
2546;SDS011;1283;47.982;7.834;2023-06-22T09:15:44;12.98;;;5.72;;
2546;SDS011;1283;47.982;7.834;2023-06-22T09:18:11;14.15;;;5.35;;
2546;SDS011;1283;47.982;7.834;2023-06-22T09:20:38;15.63;;;5.68;;
2546;SDS011;1283;47.982;7.834;2023-06-22T09:23:04;20.42;;;6.03;;
2546;SDS011;1283;47.982;7.834;2023-06-22T09:25:30;22.30;;;5.75;;
2546;SDS011;1283;47.982;7.834;2023-06-22T09:27:57;15.88;;;5.40;;
2546;SDS011;1283;47.982;7.834;2023-06-22T09:30:25;12.77;;;4.93;;
2546;SDS011;1283;47.982;7.834;2023-06-22T09:32:51;17.30;;;5.80;;
2546;SDS011;1283;47.982;7.834;2023-06-22T09:35:17;11.45;;;5.57;;
2546;SDS011;1283;47.982;7.834;2023-06-22T09:37:45;18.77;;;6.30;;
2546;SDS011;1283;47.982;7.834;2023-06-22T09:40:11;17.50;;;6.10;;
2546;SDS011;1283;47.982;7.834;2023-06-22T09:42:41;12.95;;;5.28;;
2546;SDS011;1283;47.982;7.834;2023-06-22T09:45:07;18.77;;;5.53;;
2546;SDS011;1283;47.982;7.834;2023-06-22T09:47:36;22.15;;;6.20;;
2546;SDS011;1283;47.982;7.834;2023-06-22T09:50:02;15.75;;;5.68;;
2546;SDS011;1283;47.982;7.834;2023-06-22T09:52:29;16.92;;;5.70;;
2546;SDS011;1283;47.982;7.834;2023-06-22T09:54:56;14.68;;;5.95;;
2546;SDS011;1283;47.982;7.834;2023-06-22T09:57:22;17.95;;;5.00;;
2546;SDS011;1283;47.982;7.834;2023-06-22T09:59:49;15.88;;;5.82;;
2546;SDS011;1283;47.982;7.834;2023-06-22T10:02:15;17.73;;;6.00;;
2546;SDS011;1283;47.982;7.834;2023-06-22T10:04:43;14.60;;;5.32;;
2546;SDS011;1283;47.982;7.834;2023-06-22T10:07:10;13.05;;;5.65;;
2546;SDS011;1283;47.982;7.834;2023-06-22T10:09:36;28.23;;;6.15;;
2546;SDS011;1283;47.982;7.834;2023-06-22T10:12:03;20.33;;;5.93;;
2546;SDS011;1283;47.982;7.834;2023-06-22T10:14:29;17.88;;;5.63;;
2546;SDS011;1283;47.982;7.834;2023-06-22T10:16:56;14.38;;;5.70;;
2546;SDS011;1283;47.982;7.834;2023-06-22T10:19:22;13.35;;;5.60;;
2546;SDS011;1283;47.982;7.834;2023-06-22T10:21:50;14.73;;;6.35;;
2546;SDS011;1283;47.982;7.834;2023-06-22T10:24:17;17.80;;;6.15;;
2546;SDS011;1283;47.982;7.834;2023-06-22T10:26:43;14.25;;;5.70;;
2546;SDS011;1283;47.982;7.834;2023-06-22T10:29:10;21.50;;;6.72;;
2546;SDS011;1283;47.982;7.834;2023-06-22T10:31:36;14.23;;;5.63;;
2546;SDS011;1283;47.982;7.834;2023-06-22T10:34:03;19.95;;;5.80;;
2546;SDS011;1283;47.982;7.834;2023-06-22T10:36:29;15.95;;;6.38;;
2546;SDS011;1283;47.982;7.834;2023-06-22T10:38:57;15.85;;;6.03;;
2546;SDS011;1283;47.982;7.834;2023-06-22T10:41:24;21.75;;;6.03;;
2546;SDS011;1283;47.982;7.834;2023-06-22T10:43:50;16.05;;;6.53;;
2546;SDS011;1283;47.982;7.834;2023-06-22T10:46:17;19.50;;;5.80;;
2546;SDS011;1283;47.982;7.834;2023-06-22T10:48:43;19.05;;;5.72;;
2546;SDS011;1283;47.982;7.834;2023-06-22T10:51:10;13.10;;;5.70;;
2546;SDS011;1283;47.982;7.834;2023-06-22T10:53:36;14.68;;;5.70;;
2546;SDS011;1283;47.982;7.834;2023-06-22T10:56:04;17.77;;;6.35;;
2546;SDS011;1283;47.982;7.834;2023-06-22T10:58:30;15.32;;;6.97;;
2546;SDS011;1283;47.982;7.834;2023-06-22T11:00:57;15.90;;;6.78;;
2546;SDS011;1283;47.982;7.834;2023-06-22T11:03:24;17.63;;;6.70;;
2546;SDS011;1283;47.982;7.834;2023-06-22T11:05:51;15.57;;;6.25;;
2546;SDS011;1283;47.982;7.834;2023-06-22T11:08:18;23.48;;;6.40;;
2546;SDS011;1283;47.982;7.834;2023-06-22T11:10:44;14.05;;;6.00;;
2546;SDS011;1283;47.982;7.834;2023-06-22T11:13:12;21.77;;;6.50;;
2546;SDS011;1283;47.982;7.834;2023-06-22T11:15:38;14.52;;;7.20;;
2546;SDS011;1283;47.982;7.834;2023-06-22T11:18:06;15.20;;;7.00;;
2546;SDS011;1283;47.982;7.834;2023-06-22T11:20:33;16.23;;;6.85;;
2546;SDS011;1283;47.982;7.834;2023-06-22T11:23:03;17.42;;;6.35;;
2546;SDS011;1283;47.982;7.834;2023-06-22T11:25:30;20.08;;;6.10;;
2546;SDS011;1283;47.982;7.834;2023-06-22T11:27:56;19.33;;;6.80;;
2546;SDS011;1283;47.982;7.834;2023-06-22T11:30:24;13.80;;;6.35;;
2546;SDS011;1283;47.982;7.834;2023-06-22T11:32:50;12.15;;;5.90;;
2546;SDS011;1283;47.982;7.834;2023-06-22T11:35:17;20.70;;;7.10;;
2546;SDS011;1283;47.982;7.834;2023-06-22T11:37:43;16.67;;;6.28;;
2546;SDS011;1283;47.982;7.834;2023-06-22T11:40:10;14.52;;;7.43;;
2546;SDS011;1283;47.982;7.834;2023-06-22T11:42:37;13.00;;;7.50;;
2546;SDS011;1283;47.982;7.834;2023-06-22T11:45:04;18.30;;;7.30;;
2546;SDS011;1283;47.982;7.834;2023-06-22T11:47:35;15.68;;;6.38;;
2546;SDS011;1283;47.982;7.834;2023-06-22T11:50:01;19.05;;;6.80;;
2546;SDS011;1283;47.982;7.834;2023-06-22T11:52:28;20.85;;;7.45;;
2546;SDS011;1283;47.982;7.834;2023-06-22T11:54:54;32.65;;;7.38;;
2546;SDS011;1283;47.982;7.834;2023-06-22T11:57:20;22.27;;;7.03;;
2546;SDS011;1283;47.982;7.834;2023-06-22T11:59:47;15.32;;;6.57;;
2546;SDS011;1283;47.982;7.834;2023-06-22T12:02:13;20.80;;;5.97;;
2546;SDS011;1283;47.982;7.834;2023-06-22T12:04:41;22.20;;;6.75;;
2546;SDS011;1283;47.982;7.834;2023-06-22T12:07:08;16.95;;;6.38;;
2546;SDS011;1283;47.982;7.834;2023-06-22T12:09:34;25.20;;;6.43;;
2546;SDS011;1283;47.982;7.834;2023-06-22T12:12:00;14.85;;;6.30;;
2546;SDS011;1283;47.982;7.834;2023-06-22T12:14:27;15.13;;;6.68;;
2546;SDS011;1283;47.982;7.834;2023-06-22T12:16:53;19.58;;;7.10;;
2546;SDS011;1283;47.982;7.834;2023-06-22T12:19:20;20.30;;;7.15;;
2546;SDS011;1283;47.982;7.834;2023-06-22T12:21:48;17.50;;;6.60;;
2546;SDS011;1283;47.982;7.834;2023-06-22T12:24:14;16.15;;;6.63;;
2546;SDS011;1283;47.982;7.834;2023-06-22T12:26:40;20.10;;;7.38;;
2546;SDS011;1283;47.982;7.834;2023-06-22T12:29:07;19.80;;;7.70;;
2546;SDS011;1283;47.982;7.834;2023-06-22T12:31:35;22.00;;;8.57;;
2546;SDS011;1283;47.982;7.834;2023-06-22T12:34:01;23.13;;;8.00;;
2546;SDS011;1283;47.982;7.834;2023-06-22T12:36:28;26.33;;;7.28;;
2546;SDS011;1283;47.982;7.834;2023-06-22T12:38:56;24.55;;;7.63;;
2546;SDS011;1283;47.982;7.834;2023-06-22T12:41:23;16.27;;;5.97;;
2546;SDS011;1283;47.982;7.834;2023-06-22T12:43:49;15.27;;;6.28;;
2546;SDS011;1283;47.982;7.834;2023-06-22T12:46:16;14.70;;;6.35;;
2546;SDS011;1283;47.982;7.834;2023-06-22T12:48:42;17.52;;;5.63;;
2546;SDS011;1283;47.982;7.834;2023-06-22T12:51:08;13.52;;;6.03;;
2546;SDS011;1283;47.982;7.834;2023-06-22T12:53:35;20.08;;;6.15;;
2546;SDS011;1283;47.982;7.834;2023-06-22T12:56:03;22.58;;;6.68;;
2546;SDS011;1283;47.982;7.834;2023-06-22T12:58:30;21.85;;;5.85;;
2546;SDS011;1283;47.982;7.834;2023-06-22T13:00:56;19.30;;;6.30;;
2546;SDS011;1283;47.982;7.834;2023-06-22T13:03:22;24.80;;;5.72;;
2546;SDS011;1283;47.982;7.834;2023-06-22T13:05:51;22.17;;;5.95;;
2546;SDS011;1283;47.982;7.834;2023-06-22T13:08:18;20.67;;;5.78;;
2546;SDS011;1283;47.982;7.834;2023-06-22T13:10:44;26.50;;;5.68;;
2546;SDS011;1283;47.982;7.834;2023-06-22T13:13:12;16.15;;;5.35;;
2546;SDS011;1283;47.982;7.834;2023-06-22T13:15:39;23.00;;;5.75;;
2546;SDS011;1283;47.982;7.834;2023-06-22T13:18:05;20.27;;;6.07;;
2546;SDS011;1283;47.982;7.834;2023-06-22T13:20:31;20.73;;;5.90;;
2546;SDS011;1283;47.982;7.834;2023-06-22T13:22:58;17.77;;;6.07;;
2546;SDS011;1283;47.982;7.834;2023-06-22T13:25:24;23.75;;;6.13;;
2546;SDS011;1283;47.982;7.834;2023-06-22T13:27:51;15.77;;;5.50;;
2546;SDS011;1283;47.982;7.834;2023-06-22T13:30:19;18.70;;;5.65;;
2546;SDS011;1283;47.982;7.834;2023-06-22T13:32:46;20.23;;;5.97;;
2546;SDS011;1283;47.982;7.834;2023-06-22T13:35:12;22.27;;;5.78;;
2546;SDS011;1283;47.982;7.834;2023-06-22T13:37:39;20.33;;;6.85;;
2546;SDS011;1283;47.982;7.834;2023-06-22T13:40:05;20.60;;;5.68;;
2546;SDS011;1283;47.982;7.834;2023-06-22T13:42:33;21.60;;;6.25;;
2546;SDS011;1283;47.982;7.834;2023-06-22T13:44:59;15.25;;;5.50;;
2546;SDS011;1283;47.982;7.834;2023-06-22T13:47:27;17.45;;;5.15;;
2546;SDS011;1283;47.982;7.834;2023-06-22T13:49:53;17.42;;;5.93;;
2546;SDS011;1283;47.982;7.834;2023-06-22T13:52:20;20.42;;;5.35;;
2546;SDS011;1283;47.982;7.834;2023-06-22T13:54:46;17.70;;;5.40;;
2546;SDS011;1283;47.982;7.834;2023-06-22T13:57:13;14.45;;;5.85;;
2546;SDS011;1283;47.982;7.834;2023-06-22T13:59:39;25.15;;;5.38;;
2546;SDS011;1283;47.982;7.834;2023-06-22T14:02:06;22.75;;;5.95;;
2546;SDS011;1283;47.982;7.834;2023-06-22T14:04:34;24.85;;;5.68;;
2546;SDS011;1283;47.982;7.834;2023-06-22T14:07:00;27.75;;;5.72;;
2546;SDS011;1283;47.982;7.834;2023-06-22T14:09:27;21.60;;;5.78;;
2546;SDS011;1283;47.982;7.834;2023-06-22T14:11:53;18.33;;;5.97;;
2546;SDS011;1283;47.982;7.834;2023-06-22T14:14:20;14.60;;;5.70;;
2546;SDS011;1283;47.982;7.834;2023-06-22T14:16:47;18.65;;;5.88;;
2546;SDS011;1283;47.982;7.834;2023-06-22T14:19:16;19.35;;;5.25;;
2546;SDS011;1283;47.982;7.834;2023-06-22T14:21:44;13.23;;;5.45;;
2546;SDS011;1283;47.982;7.834;2023-06-22T14:24:11;18.02;;;5.60;;
2546;SDS011;1283;47.982;7.834;2023-06-22T14:26:37;22.33;;;5.68;;
2546;SDS011;1283;47.982;7.834;2023-06-22T14:29:04;30.00;;;5.85;;
2546;SDS011;1283;47.982;7.834;2023-06-22T14:31:30;13.57;;;5.32;;
2546;SDS011;1283;47.982;7.834;2023-06-22T14:33:57;19.80;;;4.93;;
2546;SDS011;1283;47.982;7.834;2023-06-22T14:36:24;19.83;;;5.53;;
2546;SDS011;1283;47.982;7.834;2023-06-22T14:38:51;19.85;;;6.72;;
2546;SDS011;1283;47.982;7.834;2023-06-22T14:41:18;24.58;;;7.13;;
2546;SDS011;1283;47.982;7.834;2023-06-22T14:43:45;21.65;;;5.60;;
2546;SDS011;1283;47.982;7.834;2023-06-22T14:46:12;12.65;;;5.40;;
2546;SDS011;1283;47.982;7.834;2023-06-22T14:48:39;14.10;;;6.63;;
2546;SDS011;1283;47.982;7.834;2023-06-22T14:51:05;18.70;;;5.72;;
2546;SDS011;1283;47.982;7.834;2023-06-22T14:53:32;19.40;;;6.03;;
2546;SDS011;1283;47.982;7.834;2023-06-22T14:55:59;16.52;;;5.00;;
2546;SDS011;1283;47.982;7.834;2023-06-22T14:58:27;16.60;;;5.18;;
2546;SDS011;1283;47.982;7.834;2023-06-22T15:00:53;16.35;;;5.10;;